Time;durP1;ratioP1;P1;durP2;ratioP2;P2;SDS_P1;SDS_P2;PMS_P1;PMS_P2;Temp;Humidity;BMP_temperature;BMP_pressure;BME280_temperature;BME280_humidity;BME280_pressure;Samples;Min_cycle;Max_cycle;Signal;HPM_P1;HPM_P2
2022/05/03 04:15:16;;;;;;;2.03;2.03;;;5.10;99.90;;;;;;5859167;23;20195;-63
2022/05/03 04:17:44;;;;;;;2.00;1.92;;;5.10;99.90;;;;;;4936001;29;20208;-62
2022/05/03 04:20:12;;;;;;;2.00;2.00;;;5.10;99.90;;;;;;4936252;29;20291;-61
2022/05/03 04:22:39;;;;;;;2.10;2.10;;;5.20;99.90;;;;;;4936152;29;20279;-61
2022/05/03 04:25:06;;;;;;;1.80;1.80;;;5.20;99.90;;;;;;4933050;29;20316;-62
2022/05/03 04:27:34;;;;;;;1.70;1.70;;;5.20;99.90;;;;;;4917254;29;20247;-62
2022/05/03 04:30:02;;;;;;;2.08;2.05;;;5.20;99.90;;;;;;4917668;29;20240;-65
2022/05/03 04:32:31;;;;;;;2.13;2.03;;;5.20;99.90;;;;;;4916989;29;20312;-64
2022/05/03 04:34:59;;;;;;;2.17;2.17;;;5.30;99.90;;;;;;4917098;29;20291;-64
2022/05/03 04:37:26;;;;;;;2.70;2.60;;;5.30;99.90;;;;;;4917353;29;20201;-64
2022/05/03 04:39:53;;;;;;;2.95;2.75;;;5.40;99.90;;;;;;4917325;29;20296;-64
2022/05/03 04:42:20;;;;;;;2.53;2.42;;;5.50;99.90;;;;;;4916951;29;20228;-64
2022/05/03 04:44:47;;;;;;;2.80;2.70;;;5.50;99.90;;;;;;4916830;29;20240;-64
2022/05/03 04:47:14;;;;;;;2.33;2.25;;;5.60;99.90;;;;;;4916808;29;20209;-64
2022/05/03 04:49:42;;;;;;;2.38;2.28;;;5.70;99.90;;;;;;4917082;29;20735;-63
2022/05/03 04:52:10;;;;;;;2.35;2.35;;;5.80;99.90;;;;;;4916358;29;20817;-64
2022/05/03 04:54:37;;;;;;;2.17;2.08;;;5.90;99.90;;;;;;4916827;29;20288;-64
2022/05/03 04:57:06;;;;;;;2.08;2.00;;;6.10;99.90;;;;;;4916742;29;20263;-66
2022/05/03 04:59:33;;;;;;;1.92;1.90;;;6.20;99.90;;;;;;4916827;29;20292;-65
2022/05/03 05:02:00;;;;;;;2.40;2.30;;;6.60;99.90;;;;;;4916621;29;20300;-66
2022/05/03 05:04:27;;;;;;;1.88;1.88;;;7.00;99.90;;;;;;4916578;29;20312;-66
2022/05/03 05:06:55;;;;;;;1.67;1.67;;;7.50;99.90;;;;;;4916420;29;20788;-65
2022/05/03 05:09:22;;;;;;;1.90;1.90;;;8.00;99.90;;;;;;4916781;29;20297;-65
2022/05/03 05:11:49;;;;;;;2.28;2.28;;;8.60;99.90;;;;;;4916296;29;20320;-66
2022/05/03 05:14:19;;;;;;;2.05;2.05;;;9.10;99.90;;;;;;4916766;29;20300;-67
2022/05/03 05:16:46;;;;;;;3.70;3.40;;;9.60;99.90;;;;;;4916824;29;20236;-66
2022/05/03 13:42:11;;;;;;;1.77;1.67;;;18.10;71.60;;;;;;4920995;29;20304;-69
2022/05/03 13:44:40;;;;;;;1.23;1.23;;;18.00;60.10;;;;;;4925231;29;20683;-69
2022/05/03 13:47:08;;;;;;;1.50;1.40;;;18.10;59.80;;;;;;4924038;29;20205;-69
2022/05/03 13:49:36;;;;;;;1.23;1.23;;;18.20;62.10;;;;;;4924707;29;20232;-69
2022/05/03 13:52:04;;;;;;;1.67;1.42;;;18.30;63.60;;;;;;4924029;29;20268;-69
2022/05/03 13:54:31;;;;;;;1.80;1.70;;;18.40;68.00;;;;;;4923974;29;20643;-69
2022/05/03 13:56:58;;;;;;;1.50;1.50;;;18.30;68.60;;;;;;4924294;29;20291;-69
2022/05/03 13:59:27;;;;;;;1.40;1.40;;;18.30;64.50;;;;;;4923330;29;20764;-69
2022/05/03 14:01:54;;;;;;;1.15;1.15;;;18.30;66.00;;;;;;4923671;29;20205;-69
2022/05/03 14:04:21;;;;;;;1.48;1.38;;;18.40;67.00;;;;;;4923013;29;20217;-69
2022/05/03 14:06:49;;;;;;;1.00;1.00;;;18.50;60.20;;;;;;4923843;29;20265;-70
2022/05/03 14:09:16;;;;;;;1.55;1.00;;;18.60;60.30;;;;;;4923822;29;20208;-69
2022/05/03 14:11:43;;;;;;;1.00;1.00;;;18.70;52.30;;;;;;4924590;29;20237;-69
2022/05/03 14:14:11;;;;;;;0.70;0.70;;;18.60;48.00;;;;;;4924796;29;20233;-69
2022/05/03 14:16:39;;;;;;;1.02;1.02;;;18.60;50.10;;;;;;4924590;29;20234;-69
2022/05/03 14:19:07;;;;;;;1.95;1.10;;;18.70;51.50;;;;;;4924629;29;20229;-69
2022/05/03 14:21:34;;;;;;;1.77;1.10;;;18.60;45.50;;;;;;4925087;29;20588;-69
2022/05/03 14:24:02;;;;;;;1.45;1.35;;;18.60;47.80;;;;;;4923667;29;20645;-69
2022/05/03 14:26:29;;;;;;;1.25;1.15;;;18.50;46.20;;;;;;4922120;29;20296;-68
2022/05/03 14:28:55;;;;;;;0.90;0.90;;;18.50;46.20;;;;;;4919437;29;20287;-62
2022/05/03 14:31:25;;;;;;;1.10;1.10;;;18.40;46.40;;;;;;4919527;29;20295;-62
2022/05/03 14:33:55;;;;;;;3.17;1.23;;;18.40;47.70;;;;;;4918717;29;20723;-61
2022/05/03 14:36:22;;;;;;;1.00;1.00;;;18.30;47.00;;;;;;4919736;29;20261;-61
2022/05/03 14:38:49;;;;;;;1.90;1.05;;;18.20;47.20;;;;;;4920119;29;20231;-61
2022/05/03 14:41:16;;;;;;;1.10;1.10;;;18.10;49.80;;;;;;4919144;29;20324;-61
2022/05/03 14:43:43;;;;;;;2.60;1.02;;;18.00;50.30;;;;;;4919283;29;20288;-61
2022/05/03 14:46:10;;;;;;;1.20;1.08;;;17.90;52.50;;;;;;4919812;29;20237;-61
2022/05/03 14:48:37;;;;;;;1.27;1.00;;;17.90;46.30;;;;;;4918947;29;20240;-61
2022/05/03 14:51:05;;;;;;;1.08;1.00;;;17.90;44.30;;;;;;4918193;29;20312;-61
2022/05/03 14:53:32;;;;;;;1.67;1.00;;;17.80;39.90;;;;;;4919129;29;20229;-61
2022/05/03 15:04:13;;;;;;;0.80;0.80;;;17.70;45.10;;;;;;4919229;29;20621;-61
2022/05/03 15:06:41;;;;;;;0.73;0.73;;;17.80;45.40;;;;;;4919188;29;20292;-61
2022/05/03 15:09:09;;;;;;;0.90;0.90;;;17.90;45.50;;;;;;4918883;29;20304;-67
2022/05/03 15:11:36;;;;;;;0.90;0.90;;;17.90;46.20;;;;;;4918855;29;20676;-66
2022/05/03 15:14:04;;;;;;;1.00;1.00;;;18.00;45.80;;;;;;4918616;29;20772;-66
2022/05/03 15:16:31;;;;;;;0.80;0.80;;;18.00;45.50;;;;;;4918540;29;20296;-66
2022/05/03 15:18:58;;;;;;;1.25;1.25;;;18.10;46.80;;;;;;4918848;29;20205;-67
2022/05/03 15:21:25;;;;;;;1.00;1.00;;;18.10;45.90;;;;;;4918644;29;20624;-66
2022/05/03 15:26:38;;;;;;;0.90;0.90;;;18.10;45.20;;;;;;4919191;29;20192;-66
2022/05/03 15:29:06;;;;;;;1.60;1.05;;;18.10;45.40;;;;;;4919053;29;20564;-66
2022/05/03 15:31:33;;;;;;;1.10;1.10;;;18.10;44.50;;;;;;4918821;29;20201;-66
2022/05/03 15:34:00;;;;;;;2.20;1.00;;;17.90;43.80;;;;;;4918405;29;20320;-66
2022/05/03 15:36:28;;;;;;;2.20;1.13;;;17.90;44.40;;;;;;4918307;29;20239;-66
2022/05/03 15:38:56;;;;;;;1.88;1.38;;;17.90;45.40;;;;;;4918137;29;20205;-67
2022/05/03 15:41:23;;;;;;;0.90;0.90;;;17.80;45.60;;;;;;4918193;29;20223;-65
2022/05/03 15:43:50;;;;;;;2.55;1.10;;;17.80;45.30;;;;;;4921908;29;20581;-66
2022/05/03 15:46:18;;;;;;;1.27;1.17;;;17.80;45.40;;;;;;4921692;29;20212;-65
2022/05/03 15:48:45;;;;;;;1.55;1.08;;;17.80;46.00;;;;;;4922188;29;20205;-66
2022/05/03 15:51:12;;;;;;;1.00;1.00;;;17.80;45.30;;;;;;4921049;29;20316;-65
2022/05/03 15:53:39;;;;;;;3.30;1.35;;;17.90;46.90;;;;;;4919146;29;20716;-65
2022/05/03 15:56:07;;;;;;;1.38;1.05;;;18.00;45.50;;;;;;4919158;29;20608;-65
2022/05/03 15:58:34;;;;;;;1.60;1.10;;;18.00;45.40;;;;;;4918659;29;20287;-65
2022/05/03 16:01:03;;;;;;;1.02;1.02;;;18.00;44.70;;;;;;4918046;29;20328;-64
2022/05/03 16:03:31;;;;;;;0.88;0.88;;;18.00;45.10;;;;;;4917882;29;20316;-65
2022/05/03 16:05:58;;;;;;;0.82;0.80;;;18.20;45.70;;;;;;4917905;29;20293;-65
2022/05/03 16:08:25;;;;;;;0.82;0.82;;;18.20;44.70;;;;;;4917442;29;20243;-65
2022/05/03 16:10:52;;;;;;;1.85;0.80;;;18.30;45.80;;;;;;4917556;29;20315;-64
2022/05/03 16:13:21;;;;;;;0.93;0.93;;;18.40;45.90;;;;;;4917573;29;20249;-64
2022/05/03 16:15:47;;;;;;;0.90;0.90;;;18.50;45.20;;;;;;4917319;29;20624;-66
2022/05/03 16:18:14;;;;;;;1.10;1.10;;;18.60;44.90;;;;;;4917574;29;20243;-66
2022/05/03 16:20:42;;;;;;;1.20;1.17;;;18.70;45.00;;;;;;4917497;29;20283;-65
2022/05/03 16:23:09;;;;;;;2.35;2.17;;;18.70;44.30;;;;;;4917572;29;20629;-65
2022/05/03 16:25:36;;;;;;;5.13;1.77;;;18.60;43.60;;;;;;4917318;29;20280;-65
2022/05/03 16:28:05;;;;;;;2.22;1.27;;;18.00;45.60;;;;;;4917040;29;20237;-65
2022/05/03 16:30:33;;;;;;;1.60;1.50;;;17.60;41.80;;;;;;4917352;29;20316;-65
2022/05/03 16:33:00;;;;;;;3.47;1.38;;;17.30;45.00;;;;;;4917201;29;20279;-65
2022/05/03 16:35:27;;;;;;;1.35;1.25;;;16.90;48.00;;;;;;4917340;29;20247;-65
2022/05/03 16:43:24;;;;;;;1.40;1.30;;;15.80;67.30;;;;;;4917553;29;20344;-66
2022/05/03 16:45:52;;;;;;;2.15;1.80;;;15.30;66.90;;;;;;4917035;29;20622;-66
2022/05/03 16:48:19;;;;;;;1.70;1.40;;;14.90;96.10;;;;;;4917227;29;20292;-65
2022/05/03 16:50:46;;;;;;;1.80;1.52;;;14.60;99.90;;;;;;4916777;29;20232;-65
2022/05/03 16:53:13;;;;;;;3.42;1.65;;;14.30;99.90;;;;;;4917129;29;20221;-61
2022/05/03 16:55:40;;;;;;;3.08;1.60;;;14.00;99.90;;;;;;4917117;29;20760;-65
2022/05/03 16:58:09;;;;;;;2.50;1.80;;;13.70;99.90;;;;;;4917126;29;20205;-65
2022/05/03 17:00:36;;;;;;;3.42;1.50;;;13.30;99.90;;;;;;4917108;29;20257;-65
2022/05/03 17:03:04;;;;;;;1.10;1.10;;;12.90;99.90;;;;;;4917189;29;20554;-66
2022/05/03 17:05:31;;;;;;;1.63;1.52;;;12.90;99.90;;;;;;4917509;29;20296;-66
2022/05/03 17:07:58;;;;;;;1.17;1.17;;;12.90;99.90;;;;;;4916832;29;20205;-66
2022/05/03 17:10:25;;;;;;;1.63;1.20;;;12.80;99.90;;;;;;4916739;29;20316;-66
2022/05/03 17:12:52;;;;;;;2.25;0.90;;;12.70;99.90;;;;;;4917593;29;20291;-66
2022/05/03 17:15:19;;;;;;;1.17;1.10;;;12.50;99.90;;;;;;4920656;29;20209;-66
2022/05/03 17:17:46;;;;;;;1.10;1.10;;;12.40;99.90;;;;;;4920800;29;20257;-67
2022/05/03 17:20:14;;;;;;;1.20;1.10;;;12.30;99.90;;;;;;4920757;29;20312;-67
2022/05/03 17:22:41;;;;;;;1.13;1.13;;;12.10;99.90;;;;;;4921405;29;20220;-67
2022/05/03 17:25:08;;;;;;;1.27;1.27;;;11.90;99.90;;;;;;4920665;29;20197;-67
2022/05/03 17:27:35;;;;;;;1.40;1.30;;;11.80;99.90;;;;;;4920707;29;20233;-67
2022/05/03 17:30:03;;;;;;;1.55;1.55;;;11.60;99.90;;;;;;4920676;29;20315;-67
2022/05/03 17:32:29;;;;;;;1.10;1.10;;;11.50;99.90;;;;;;4920168;29;20708;-66
2022/05/03 17:34:56;;;;;;;1.45;1.35;;;11.40;99.90;;;;;;4920559;29;20680;-66
2022/05/03 17:37:25;;;;;;;1.50;1.50;;;11.30;99.90;;;;;;4920676;29;20301;-66
2022/05/03 17:39:52;;;;;;;1.73;1.70;;;11.20;99.90;;;;;;4920702;29;20276;-67
2022/05/03 17:42:19;;;;;;;1.17;1.17;;;11.20;99.90;;;;;;4920282;29;20240;-66
2022/05/03 17:44:47;;;;;;;2.03;1.70;;;11.20;99.90;;;;;;4920550;29;20297;-65
2022/05/03 17:47:14;;;;;;;1.60;1.50;;;11.20;99.90;;;;;;4920065;29;20687;-65
2022/05/03 17:49:41;;;;;;;1.83;1.73;;;11.10;99.90;;;;;;4919971;29;20317;-65
2022/05/03 17:54:54;;;;;;;1.40;1.40;;;11.20;99.90;;;;;;4920404;29;20688;-65
2022/05/03 17:57:21;;;;;;;1.60;1.50;;;11.20;99.90;;;;;;4920194;29;20251;-65
2022/05/03 17:59:48;;;;;;;2.15;2.03;;;11.20;99.90;;;;;;4919735;29;20801;-65
2022/05/03 18:02:15;;;;;;;6.15;2.42;;;11.10;99.90;;;;;;4919786;29;20641;-65
2022/05/03 18:04:42;;;;;;;3.08;1.80;;;11.00;99.90;;;;;;4920295;29;20301;-65
2022/05/03 18:07:13;;;;;;;1.83;1.83;;;11.00;99.90;;;;;;4919703;29;20241;-65
2022/05/03 18:09:40;;;;;;;2.03;1.92;;;10.90;99.90;;;;;;4919652;29;20577;-65
2022/05/03 18:12:11;;;;;;;1.80;1.70;;;10.90;99.90;;;;;;4919729;29;20761;-64
2022/05/03 18:14:38;;;;;;;2.05;1.95;;;10.90;99.90;;;;;;4919828;29;20213;-65
2022/05/03 18:17:05;;;;;;;1.83;1.73;;;10.80;99.90;;;;;;4919738;29;20296;-66
2022/05/03 18:19:33;;;;;;;1.67;1.67;;;10.90;99.90;;;;;;4919826;29;20308;-66
2022/05/03 18:22:00;;;;;;;3.63;3.33;;;10.90;99.90;;;;;;4919776;29;20744;-66
2022/05/03 18:24:26;;;;;;;2.67;2.47;;;10.80;99.90;;;;;;4919117;29;20612;-65
2022/05/03 18:26:53;;;;;;;2.58;2.38;;;10.80;99.90;;;;;;4919685;29;20300;-65
2022/05/03 18:29:22;;;;;;;2.30;2.20;;;10.80;99.90;;;;;;4919601;29;20354;-65
2022/05/03 18:31:50;;;;;;;2.63;1.80;;;10.80;99.90;;;;;;4919500;29;20206;-64
2022/05/03 18:34:16;;;;;;;3.03;1.67;;;10.70;99.90;;;;;;4919501;29;20225;-65
2022/05/03 18:36:43;;;;;;;1.80;1.80;;;10.70;99.90;;;;;;4919154;29;20600;-64
2022/05/03 18:39:10;;;;;;;1.70;1.60;;;10.60;99.90;;;;;;4919459;29;20292;-65
2022/05/03 18:41:38;;;;;;;3.08;1.95;;;10.60;99.90;;;;;;4919068;29;20296;-64
2022/05/03 18:44:07;;;;;;;1.63;1.60;;;10.60;99.90;;;;;;4919408;29;20249;-64
2022/05/03 18:46:35;;;;;;;2.17;1.70;;;10.60;99.90;;;;;;4919378;29;20215;-64
2022/05/03 18:49:02;;;;;;;1.70;1.60;;;10.60;99.90;;;;;;4919416;29;20296;-65
2022/05/03 18:51:29;;;;;;;1.67;1.58;;;10.60;99.90;;;;;;4919172;29;20573;-66
2022/05/03 18:56:40;;;;;;;4.20;1.85;;;10.50;99.90;;;;;;4919707;29;20257;-66
2022/05/03 18:59:07;;;;;;;1.63;1.52;;;10.50;99.90;;;;;;4919436;29;20245;-65
2022/05/03 19:01:36;;;;;;;1.70;1.60;;;10.50;99.90;;;;;;4919071;29;20304;-65
2022/05/03 19:04:02;;;;;;;1.20;1.20;;;10.50;99.90;;;;;;4919205;29;20268;-65
2022/05/03 19:06:29;;;;;;;1.33;1.33;;;10.50;99.90;;;;;;4919142;29;20288;-65
2022/05/03 19:08:56;;;;;;;1.40;1.40;;;10.50;99.90;;;;;;4919292;29;20296;-65
2022/05/03 19:11:25;;;;;;;0.90;0.90;;;10.50;99.90;;;;;;4918687;29;20300;-65
2022/05/03 19:13:52;;;;;;;1.10;1.10;;;10.50;99.90;;;;;;4919277;29;20277;-65
2022/05/03 19:16:19;;;;;;;1.00;1.00;;;10.50;99.90;;;;;;4918795;29;20292;-65
2022/05/03 19:18:47;;;;;;;1.17;1.10;;;10.50;99.90;;;;;;4919034;29;20248;-65
2022/05/03 19:21:14;;;;;;;1.02;1.02;;;10.50;99.90;;;;;;4918878;29;20658;-67
2022/05/03 19:31:52;;;;;;;1.23;1.15;;;10.40;99.90;;;;;;4918596;29;20184;-64
2022/05/03 19:34:27;;;;;;;0.85;0.85;;;10.40;99.90;;;;;;4918416;29;20228;-65
2022/05/03 19:36:55;;;;;;;1.00;1.00;;;10.40;99.90;;;;;;4917831;29;20288;-65
2022/05/03 19:39:22;;;;;;;0.77;0.77;;;10.40;99.90;;;;;;4918410;29;20233;-65
2022/05/03 19:41:49;;;;;;;0.95;0.93;;;10.40;99.90;;;;;;4917830;29;20657;-64
2022/05/03 19:44:16;;;;;;;0.70;0.70;;;10.30;99.90;;;;;;4918431;29;20203;-65
2022/05/03 19:46:45;;;;;;;0.90;0.90;;;10.30;99.90;;;;;;4918307;29;20576;-65
2022/05/03 19:49:13;;;;;;;0.80;0.80;;;10.30;99.90;;;;;;4918017;29;20300;-65
2022/05/03 19:51:44;;;;;;;0.90;0.90;;;10.30;99.90;;;;;;4918388;29;20202;-66
2022/05/03 19:54:11;;;;;;;0.73;0.73;;;10.30;99.90;;;;;;4918010;29;20334;-65
2022/05/03 19:56:38;;;;;;;0.73;0.73;;;10.30;99.90;;;;;;4918282;29;20549;-65
2022/05/03 19:59:06;;;;;;;0.90;0.90;;;10.30;99.90;;;;;;4918265;29;20232;-64
2022/05/03 20:01:33;;;;;;;0.70;0.70;;;10.30;99.90;;;;;;4917966;29;20208;-65
2022/05/03 20:04:00;;;;;;;1.00;1.00;;;10.30;99.90;;;;;;4917976;29;20296;-65
2022/05/03 20:06:27;;;;;;;0.93;0.93;;;10.30;99.90;;;;;;4918709;29;20564;-65
2022/05/03 20:08:59;;;;;;;0.80;0.80;;;10.30;99.90;;;;;;4918284;29;20209;-65
2022/05/03 20:11:27;;;;;;;1.10;1.08;;;10.30;99.90;;;;;;4917761;29;20631;-65
2022/05/03 20:13:55;;;;;;;1.20;0.90;;;10.30;99.90;;;;;;4917995;29;20205;-65
2022/05/03 20:16:21;;;;;;;1.08;1.08;;;10.20;99.90;;;;;;4918013;29;20276;-64
2022/05/03 20:18:49;;;;;;;1.02;1.02;;;10.30;99.90;;;;;;4917725;29;20379;-65
2022/05/03 20:21:16;;;;;;;1.10;1.10;;;10.30;99.90;;;;;;4917691;29;20638;-67
2022/05/03 20:23:44;;;;;;;1.00;1.00;;;10.30;99.90;;;;;;4917496;29;20576;-66
2022/05/03 20:26:13;;;;;;;0.63;0.63;;;10.30;99.90;;;;;;4918051;29;20650;-67
2022/05/03 20:28:40;;;;;;;1.00;1.00;;;10.30;99.90;;;;;;4917563;29;20202;-68
2022/05/03 20:31:07;;;;;;;2.00;1.90;;;10.30;99.90;;;;;;4917348;29;20709;-68
2022/05/03 20:33:36;;;;;;;2.25;2.15;;;10.20;99.90;;;;;;4917507;29;20288;-68
2022/05/03 20:36:04;;;;;;;2.20;2.10;;;10.20;99.90;;;;;;4916985;29;20316;-68
2022/05/03 20:38:31;;;;;;;2.35;1.90;;;10.10;99.90;;;;;;4917596;29;20292;-68
2022/05/03 20:40:58;;;;;;;1.50;1.50;;;10.10;99.90;;;;;;4916979;29;20666;-69
2022/05/03 20:43:27;;;;;;;3.92;2.35;;;10.10;99.90;;;;;;4916980;29;20295;-68
2022/05/03 20:45:54;;;;;;;2.50;2.40;;;10.10;99.90;;;;;;4917231;29;20564;-69
2022/05/03 20:51:05;;;;;;;2.00;2.00;;;9.70;99.90;;;;;;4917297;29;20220;-69
2022/05/03 20:53:34;;;;;;;2.00;1.90;;;9.60;99.90;;;;;;4917292;29;20296;-69
2022/05/03 20:56:02;;;;;;;1.90;1.80;;;9.60;99.90;;;;;;4917199;29;20267;-68
2022/05/03 20:58:30;;;;;;;2.00;1.90;;;9.60;99.90;;;;;;4917249;29;20292;-69
2022/05/03 21:03:37;;;;;;;1.80;1.70;;;9.60;99.90;;;;;;4916575;29;20201;-69
2022/05/03 21:06:05;;;;;;;1.60;1.50;;;9.60;99.90;;;;;;4917059;29;20297;-68
2022/05/03 21:08:32;;;;;;;1.70;1.63;;;9.50;99.90;;;;;;4917098;29;20288;-69
2022/05/03 21:10:59;;;;;;;1.33;1.30;;;9.50;99.90;;;;;;4917084;29;20320;-68
2022/05/03 21:13:26;;;;;;;1.52;1.52;;;9.50;99.90;;;;;;4916807;29;20256;-68
2022/05/03 21:15:54;;;;;;;2.05;1.60;;;9.50;99.90;;;;;;4917005;29;20316;-69
2022/05/03 21:18:23;;;;;;;1.75;1.65;;;9.50;99.90;;;;;;4916984;29;20295;-67
2022/05/03 21:20:50;;;;;;;1.50;1.50;;;9.50;99.90;;;;;;4916639;29;20221;-68
2022/05/03 21:23:17;;;;;;;1.30;1.30;;;9.40;99.90;;;;;;4916951;29;20210;-68
2022/05/03 21:25:44;;;;;;;1.40;1.40;;;9.40;99.90;;;;;;4916960;29;20293;-69
2022/05/03 21:28:11;;;;;;;2.00;1.90;;;9.40;99.90;;;;;;4916792;29;20292;-68
2022/05/03 21:30:37;;;;;;;1.50;1.50;;;9.40;99.90;;;;;;4917282;29;20336;-70
2022/05/03 21:33:06;;;;;;;1.92;1.85;;;9.40;99.90;;;;;;4917006;29;20240;-68
2022/05/03 21:35:33;;;;;;;1.70;1.70;;;9.20;99.90;;;;;;4916559;29;20732;-68
2022/05/03 21:38:00;;;;;;;1.40;1.40;;;9.40;99.90;;;;;;4916696;29;20765;-68
2022/05/03 21:40:27;;;;;;;1.50;1.50;;;9.40;99.90;;;;;;4916568;29;20820;-68
2022/05/03 21:42:53;;;;;;;1.30;1.30;;;9.40;99.90;;;;;;4916790;29;20634;-68
2022/05/03 21:45:20;;;;;;;1.30;1.30;;;9.40;99.90;;;;;;4916793;29;20202;-68
2022/05/03 21:47:47;;;;;;;1.00;1.00;;;9.40;99.90;;;;;;4917038;29;20292;-68
2022/05/03 21:50:15;;;;;;;1.52;1.52;;;9.40;99.90;;;;;;4921240;29;20256;-67
2022/05/03 21:52:43;;;;;;;1.25;1.25;;;9.30;99.90;;;;;;4924856;29;20241;-69
2022/05/03 21:55:10;;;;;;;1.20;1.20;;;9.30;99.90;;;;;;4925141;29;20248;-69
2022/05/03 21:57:37;;;;;;;1.13;1.13;;;9.40;99.90;;;;;;4925524;29;20245;-68
2022/05/03 22:00:04;;;;;;;1.10;1.10;;;9.40;99.90;;;;;;4923272;29;20289;-68
2022/05/03 22:02:31;;;;;;;1.40;1.40;;;9.40;99.90;;;;;;4921232;29;20297;-69
2022/05/03 22:04:59;;;;;;;1.08;1.08;;;9.30;99.90;;;;;;4920500;29;20284;-68
2022/05/03 22:07:27;;;;;;;1.30;1.30;;;9.40;99.90;;;;;;4920389;29;20317;-67
2022/05/03 22:09:54;;;;;;;1.13;1.13;;;9.40;99.90;;;;;;4920974;29;20652;-67
2022/05/03 22:12:21;;;;;;;0.90;0.90;;;9.40;99.90;;;;;;4920949;29;20201;-67
2022/05/03 22:14:48;;;;;;;1.10;1.10;;;9.40;99.90;;;;;;4921073;29;20308;-67
2022/05/03 22:17:15;;;;;;;1.40;1.40;;;9.40;99.90;;;;;;4920216;29;20233;-67
2022/05/03 22:19:42;;;;;;;1.27;1.27;;;9.40;99.90;;;;;;4920074;29;20260;-67
2022/05/03 22:22:08;;;;;;;1.30;1.30;;;9.40;99.90;;;;;;4919663;29;20292;-67
2022/05/03 22:24:37;;;;;;;1.10;1.10;;;9.40;99.90;;;;;;4919578;29;20296;-67
2022/05/03 22:27:04;;;;;;;0.93;0.93;;;9.60;99.90;;;;;;4919173;29;20295;-68
2022/05/03 22:29:31;;;;;;;1.35;1.35;;;9.40;99.90;;;;;;4919411;29;20649;-67
2022/05/03 22:31:58;;;;;;;1.02;1.02;;;9.40;99.90;;;;;;4919305;29;20292;-67
2022/05/03 22:34:25;;;;;;;1.30;1.30;;;9.30;99.90;;;;;;4919385;29;20296;-67
2022/05/03 22:36:52;;;;;;;1.17;1.17;;;9.40;99.90;;;;;;4919071;29;20205;-68
2022/05/03 22:39:20;;;;;;;1.10;1.10;;;9.40;99.90;;;;;;4919065;29;20805;-67
2022/05/03 22:41:48;;;;;;;1.00;1.00;;;9.30;99.90;;;;;;4918962;29;20681;-67
2022/05/03 22:44:15;;;;;;;0.82;0.82;;;9.40;99.90;;;;;;4919344;29;20288;-67
2022/05/03 22:46:42;;;;;;;0.95;0.95;;;9.30;99.90;;;;;;4919166;29;20229;-67
2022/05/03 22:49:09;;;;;;;0.82;0.82;;;9.30;99.90;;;;;;4919058;29;20240;-67
2022/05/03 22:51:36;;;;;;;1.00;1.00;;;9.40;99.90;;;;;;4919242;29;20212;-67
2022/05/03 22:54:05;;;;;;;0.75;0.75;;;9.40;99.90;;;;;;4919133;29;20209;-67
2022/05/03 22:56:32;;;;;;;0.80;0.80;;;9.30;99.90;;;;;;4919001;29;20221;-67
2022/05/03 22:59:00;;;;;;;1.08;1.08;;;9.40;99.90;;;;;;4918902;29;20297;-67
2022/05/03 23:01:27;;;;;;;0.88;0.88;;;9.40;99.90;;;;;;4918595;29;20248;-68
2022/05/03 23:03:54;;;;;;;0.90;0.90;;;9.30;99.90;;;;;;4918879;29;20296;-67
2022/05/03 23:06:21;;;;;;;1.02;1.02;;;9.40;99.90;;;;;;4918551;29;20292;-69
2022/05/03 23:08:48;;;;;;;0.90;0.90;;;9.40;99.90;;;;;;4918801;29;20269;-69
2022/05/03 23:11:15;;;;;;;0.90;0.90;;;9.40;99.90;;;;;;4917860;29;20308;-68
2022/05/03 23:13:42;;;;;;;0.95;0.95;;;9.30;99.90;;;;;;4918395;29;20704;-68
2022/05/03 23:16:10;;;;;;;0.90;0.90;;;9.40;99.90;;;;;;4918678;29;20316;-68
2022/05/03 23:18:37;;;;;;;0.90;0.90;;;9.40;99.90;;;;;;4918739;29;20376;-68
2022/05/03 23:21:04;;;;;;;0.80;0.80;;;9.40;99.90;;;;;;4918566;29;20225;-68
2022/05/03 23:23:32;;;;;;;0.80;0.80;;;9.40;99.90;;;;;;4918547;29;20240;-68
2022/05/03 23:25:59;;;;;;;0.75;0.75;;;9.40;99.90;;;;;;4918813;29;20198;-67
2022/05/03 23:28:26;;;;;;;0.65;0.65;;;9.30;99.90;;;;;;4918488;29;20261;-68
2022/05/03 23:30:53;;;;;;;0.70;0.70;;;9.30;99.90;;;;;;4918468;29;20288;-69
2022/05/03 23:33:21;;;;;;;0.80;0.80;;;9.40;99.90;;;;;;4918401;29;20205;-68
2022/05/03 23:35:50;;;;;;;0.82;0.82;;;9.30;99.90;;;;;;4918032;29;20312;-69
2022/05/03 23:38:18;;;;;;;0.70;0.70;;;9.40;99.90;;;;;;4918236;29;20305;-69
2022/05/03 23:40:45;;;;;;;1.00;1.00;;;9.40;99.90;;;;;;4918187;29;20237;-68
2022/05/03 23:43:12;;;;;;;0.80;0.80;;;9.40;99.90;;;;;;4918680;29;20292;-68
2022/05/03 23:48:24;;;;;;;0.80;0.80;;;9.40;99.90;;;;;;4918116;29;20557;-68
2022/05/03 23:50:52;;;;;;;0.80;0.80;;;9.40;99.90;;;;;;4917908;29;20225;-67
2022/05/03 23:53:19;;;;;;;0.85;0.85;;;9.40;99.90;;;;;;4918001;29;20210;-68
2022/05/03 23:55:46;;;;;;;1.08;1.08;;;9.40;99.90;;;;;;4918141;29;20229;-68
2022/05/03 23:58:13;;;;;;;0.77;0.77;;;9.40;99.90;;;;;;4917960;29;20296;-68
